createdAt,value
2018-12-29T00:00:43.289Z,13.93
2018-12-29T00:05:48.236Z,13.70
2018-12-29T00:10:53.127Z,14.47
2018-12-29T00:15:58.243Z,13.67
2018-12-29T00:21:03.725Z,13.30
2018-12-29T00:26:09.853Z,13.93
2018-12-29T00:31:14.649Z,14.50
2018-12-29T00:36:19.401Z,13.30
2018-12-29T00:41:24.153Z,14.27
2018-12-29T00:46:29.322Z,14.57
2018-12-29T00:51:38.236Z,15.27
2018-12-29T00:56:44.972Z,14.80
2018-12-29T01:01:52.595Z,15.10
2018-12-29T01:06:57.857Z,14.03
2018-12-29T01:12:03.041Z,17.10
2018-12-29T01:17:07.928Z,15.67
2018-12-29T01:22:12.693Z,15.90
2018-12-29T01:27:17.512Z,16.90
2018-12-29T01:32:22.301Z,16.83
2018-12-29T01:37:27.020Z,17.57
2018-12-29T01:42:31.829Z,17.80
2018-12-29T01:47:36.701Z,17.53
2018-12-29T01:52:48.143Z,17.07
2018-12-29T01:57:52.977Z,18.23
2018-12-29T02:02:57.743Z,18.63
2018-12-29T02:08:02.503Z,19.37
2018-12-29T02:13:08.306Z,19.07
2018-12-29T02:18:13.199Z,18.62
2018-12-29T02:23:17.981Z,18.57
2018-12-29T02:28:22.843Z,19.10
2018-12-29T02:33:27.618Z,18.87
2018-12-29T02:38:32.417Z,19.57
2018-12-29T02:43:37.247Z,20.13
2018-12-29T02:48:42.002Z,18.27
2018-12-29T02:53:46.849Z,19.10
2018-12-29T02:58:51.706Z,19.17
2018-12-29T03:03:56.729Z,17.80
2018-12-29T03:09:01.446Z,18.00
2018-12-29T03:14:07.823Z,18.40
2018-12-29T03:19:12.559Z,19.67
2018-12-29T03:24:17.308Z,18.10
2018-12-29T03:29:23.226Z,17.37
2018-12-29T03:34:27.938Z,16.93
2018-12-29T03:39:32.657Z,17.93
2018-12-29T03:44:37.383Z,17.20
2018-12-29T03:49:42.258Z,17.13
2018-12-29T03:54:46.992Z,17.97
2018-12-29T03:59:51.720Z,18.10
2018-12-29T04:04:56.462Z,17.50
2018-12-29T04:10:01.312Z,17.27
2018-12-29T04:15:06.581Z,18.07
2018-12-29T04:20:11.357Z,18.00
2018-12-29T04:25:16.119Z,18.73
2018-12-29T04:30:24.247Z,19.53
2018-12-29T04:35:29.003Z,18.20
2018-12-29T04:40:33.777Z,18.87
2018-12-29T04:45:38.547Z,18.97
2018-12-29T04:50:43.280Z,19.33
2018-12-29T04:55:48.035Z,20.83
2018-12-29T05:00:52.808Z,19.10
2018-12-29T05:05:57.625Z,20.07
2018-12-29T05:11:02.561Z,20.50
2018-12-29T05:16:12.840Z,19.10
2018-12-29T05:21:13.829Z,18.37
2018-12-29T05:26:18.599Z,18.87
2018-12-29T05:31:23.664Z,19.60
2018-12-29T05:36:28.512Z,20.10
2018-12-29T05:41:33.326Z,19.90
2018-12-29T05:46:38.407Z,19.93
2018-12-29T05:51:44.823Z,19.93
2018-12-29T05:56:52.537Z,20.03
2018-12-29T06:01:57.456Z,18.83
2018-12-29T06:07:02.321Z,17.97
2018-12-29T06:12:07.230Z,19.37
2018-12-29T06:17:12.004Z,18.95
2018-12-29T06:22:16.728Z,18.90
2018-12-29T06:27:21.423Z,17.27
2018-12-29T06:37:54.710Z,18.03
2018-12-29T06:42:59.464Z,20.47
2018-12-29T06:48:04.598Z,19.50
2018-12-29T06:53:09.408Z,19.57
2018-12-29T06:58:14.225Z,18.73
2018-12-29T07:03:18.983Z,19.33
2018-12-29T07:08:23.645Z,20.23
2018-12-29T07:13:28.341Z,18.73
2018-12-29T07:18:33.031Z,20.57
2018-12-29T07:23:37.721Z,20.03
2018-12-29T07:28:42.513Z,18.37
2018-12-29T07:33:47.217Z,18.67
2018-12-29T07:38:52.869Z,19.27
2018-12-29T07:43:57.565Z,17.60
2018-12-29T07:49:02.296Z,16.90
2018-12-29T07:54:08.099Z,18.13
2018-12-29T07:59:12.841Z,18.90
2018-12-29T08:04:17.595Z,19.03
2018-12-29T08:09:22.573Z,18.82
2018-12-29T08:14:27.279Z,18.90
2018-12-29T08:19:31.958Z,18.00
2018-12-29T08:24:36.658Z,17.80
2018-12-29T08:29:41.337Z,18.57
2018-12-29T08:34:46.049Z,17.80
2018-12-29T08:39:50.847Z,18.27
2018-12-29T08:44:55.558Z,19.00
2018-12-29T08:50:00.272Z,17.27
2018-12-29T08:55:05.749Z,17.13
2018-12-29T09:00:10.599Z,21.67
2018-12-29T09:05:15.359Z,18.53
2018-12-29T09:10:22.060Z,18.70
2018-12-29T09:15:27.421Z,19.80
2018-12-29T09:20:32.256Z,21.63
2018-12-29T09:25:37.103Z,18.63
2018-12-29T09:30:41.862Z,17.67
2018-12-29T09:35:46.586Z,16.63
2018-12-29T09:40:51.424Z,18.00
2018-12-29T09:45:56.215Z,16.83
2018-12-29T09:51:01.010Z,16.40
2018-12-29T09:56:07.024Z,15.73
2018-12-29T10:01:11.864Z,15.23
2018-12-29T10:06:17.710Z,14.87
2018-12-29T10:11:22.516Z,14.60
2018-12-29T10:21:11.616Z,14.97
2018-12-29T10:26:16.296Z,13.62
2018-12-29T10:31:20.968Z,15.10
2018-12-29T10:36:25.680Z,14.70
2018-12-29T10:41:30.431Z,15.70
2018-12-29T10:46:35.106Z,15.93
2018-12-29T10:51:39.818Z,17.03
2018-12-29T10:56:44.859Z,14.93
2018-12-29T11:01:49.618Z,15.10
2018-12-29T11:06:54.677Z,16.77
2018-12-29T11:11:59.383Z,14.57
2018-12-29T11:17:07.325Z,15.70
2018-12-29T11:22:12.050Z,14.20
2018-12-29T11:27:16.781Z,14.60
2018-12-29T11:32:21.540Z,15.03
2018-12-29T11:37:26.286Z,15.83
2018-12-29T11:42:30.989Z,15.57
2018-12-29T11:47:35.677Z,17.73
2018-12-29T11:52:40.357Z,17.73
2018-12-29T11:57:45.047Z,17.33
2018-12-29T12:02:50.044Z,17.30
2018-12-29T12:07:54.758Z,16.37
2018-12-29T12:12:59.721Z,16.60
2018-12-29T12:18:04.575Z,16.50
2018-12-29T12:23:09.349Z,16.97
2018-12-29T12:28:14.087Z,16.43
2018-12-29T12:33:18.852Z,15.70
2018-12-29T12:38:23.650Z,17.47
2018-12-29T12:43:28.398Z,17.87
2018-12-29T12:48:33.542Z,16.80
2018-12-29T12:53:38.641Z,15.37
2018-12-29T12:58:43.427Z,16.27
2018-12-29T13:03:48.736Z,15.70
2018-12-29T13:08:53.482Z,13.47
2018-12-29T13:13:58.226Z,12.47
2018-12-29T13:19:03.210Z,13.43
2018-12-29T13:24:08.071Z,13.43
2018-12-29T13:29:12.871Z,14.23
2018-12-29T13:34:17.938Z,13.70
2018-12-29T13:39:22.719Z,12.55
2018-12-29T13:44:27.804Z,12.70
2018-12-29T13:49:32.892Z,12.37
2018-12-29T13:54:37.590Z,13.10
2018-12-29T13:59:42.333Z,12.70
2018-12-29T14:04:47.123Z,13.07
2018-12-29T14:09:52.813Z,11.77
2018-12-29T14:14:57.617Z,12.60
2018-12-29T14:20:02.390Z,12.33
2018-12-29T14:25:07.609Z,13.37
2018-12-29T14:30:12.385Z,13.55
2018-12-29T14:35:17.247Z,13.80
2018-12-29T14:40:22.034Z,13.32
2018-12-29T14:45:26.964Z,12.77
2018-12-29T14:50:31.668Z,13.43
2018-12-29T14:55:36.490Z,13.27
2018-12-29T15:00:41.279Z,12.97
2018-12-29T15:05:46.112Z,13.50
2018-12-29T15:10:51.256Z,13.80
2018-12-29T15:16:01.290Z,13.40
2018-12-29T15:21:05.833Z,13.43
2018-12-29T15:26:21.601Z,15.47
2018-12-29T15:31:31.289Z,15.30
2018-12-29T15:36:38.226Z,14.13
2018-12-29T15:41:42.997Z,13.83
2018-12-29T15:46:47.785Z,13.70
2018-12-29T15:51:52.535Z,13.10
2018-12-29T15:56:57.393Z,12.70
2018-12-29T16:02:02.598Z,13.03
2018-12-29T16:07:07.412Z,12.70
2018-12-29T16:12:12.466Z,12.93
2018-12-29T16:17:17.240Z,12.30
2018-12-29T16:22:22.350Z,12.70
2018-12-29T16:27:27.125Z,13.27
2018-12-29T16:32:31.919Z,11.57
2018-12-29T16:37:37.568Z,9.83
2018-12-29T16:42:42.385Z,9.43
2018-12-29T16:47:47.091Z,9.27
2018-12-29T16:52:51.887Z,8.60
2018-12-29T16:57:56.681Z,8.87
2018-12-29T17:03:01.453Z,8.43
2018-12-29T17:08:06.249Z,8.17
2018-12-29T17:13:11.007Z,7.40
2018-12-29T17:18:15.718Z,12.37
2018-12-29T17:23:20.761Z,9.00
2018-12-29T17:28:25.542Z,8.77
2018-12-29T17:33:30.610Z,15.53
2018-12-29T17:38:35.356Z,7.83
2018-12-29T17:43:40.634Z,7.40
2018-12-29T17:48:45.489Z,13.57
2018-12-29T17:53:50.457Z,7.20
2018-12-29T17:58:55.261Z,6.67
2018-12-29T18:04:00.054Z,6.67
2018-12-29T18:09:06.307Z,6.77
2018-12-29T18:14:11.114Z,6.80
2018-12-29T18:19:15.888Z,6.85
2018-12-29T18:24:20.662Z,7.37
2018-12-29T18:29:25.454Z,7.90
2018-12-29T18:34:30.319Z,8.17
2018-12-29T18:39:35.352Z,7.60
2018-12-29T18:44:40.143Z,8.37
2018-12-29T18:49:44.921Z,8.90
2018-12-29T18:54:49.691Z,8.07
2018-12-29T18:59:54.481Z,7.17
2018-12-29T19:04:59.268Z,8.57
2018-12-29T19:10:04.473Z,10.93
2018-12-29T19:15:09.250Z,12.87
2018-12-29T19:20:14.362Z,12.70
2018-12-29T19:25:19.100Z,11.90
2018-12-29T19:30:25.355Z,13.33
2018-12-29T19:35:30.520Z,13.20
2018-12-29T19:40:35.258Z,14.23
2018-12-29T19:45:40.352Z,12.57
2018-12-29T19:50:45.314Z,11.93
2018-12-29T19:55:50.282Z,14.10
2018-12-29T20:00:55.059Z,14.37
2018-12-29T20:05:59.854Z,13.27
2018-12-29T20:11:04.939Z,13.33
2018-12-29T20:16:09.715Z,14.67
2018-12-29T20:21:14.476Z,13.37
2018-12-29T20:26:19.287Z,13.53
2018-12-29T20:31:24.132Z,13.10
2018-12-29T20:36:28.878Z,13.10
2018-12-29T20:41:33.668Z,14.83
2018-12-29T20:46:38.457Z,13.47
2018-12-29T20:51:43.536Z,11.60
2018-12-29T20:56:48.667Z,12.10
2018-12-29T21:01:54.042Z,11.90
2018-12-29T21:06:58.835Z,9.97
2018-12-29T21:12:04.686Z,10.30
2018-12-29T21:17:09.483Z,10.27
2018-12-29T21:22:14.257Z,10.37
2018-12-29T21:27:19.285Z,10.13
2018-12-29T21:32:24.039Z,10.10
2018-12-29T21:37:28.887Z,8.40
2018-12-29T21:42:34.555Z,8.57
2018-12-29T21:47:39.331Z,8.43
2018-12-29T21:52:44.129Z,8.00
2018-12-29T21:57:49.203Z,9.37
2018-12-29T22:02:53.998Z,9.43
2018-12-29T22:07:58.965Z,8.73
2018-12-29T22:13:05.841Z,8.53
2018-12-29T22:18:10.586Z,8.17
2018-12-29T22:23:15.367Z,7.72
2018-12-29T22:28:21.129Z,8.40
2018-12-29T22:33:25.908Z,7.77
2018-12-29T22:38:30.951Z,7.63
2018-12-29T22:43:35.742Z,7.17
2018-12-29T22:48:40.481Z,7.43
2018-12-29T22:53:45.379Z,7.67
2018-12-29T22:58:50.318Z,7.60
2018-12-29T23:03:55.128Z,7.07
2018-12-29T23:09:00.065Z,7.83
2018-12-29T23:14:05.187Z,7.17
2018-12-29T23:19:09.909Z,6.90
2018-12-29T23:24:14.800Z,6.63
2018-12-29T23:29:20.222Z,7.00
2018-12-29T23:34:25.274Z,7.23
2018-12-29T23:39:30.309Z,7.60
2018-12-29T23:44:35.376Z,6.80
2018-12-29T23:49:40.335Z,6.80
2018-12-29T23:54:45.775Z,6.43
2018-12-29T23:59:50.766Z,5.97
